Tiempo atmosférico en la estación meteorológica de Segorbe, Castelló/Castellón (460 m.)



Fecha
DESCASC
Temp. máxima en grados centígrados (hora)
DESCASC
Temp. mínima en grados centígrados (hora)
DESCASC
Temp. media en grados centígrados
DESCASC
Racha de viento máxima en m/sg (hora)
DESCASC
Velocidad máxima media en intervalos de 10 minutos(hora)
DESCASC
Precipitaciones diarias en mm
DESCASC
Precipitaciones de 00:00 a 06:00 en mm
DESCASC
Precipitaciones de 06:00 a 12:00 en mm
DESCASC
Precipitaciones de 12:00 a 18:00 en mm
DESCASC
Precipitaciones de 18:00 a 24:00 en mm
DESCASC
27-10-2020 19.8 (14:40) 6.7 (01:30) 13.2 10.83 (07:10) 5.83 (10:30) 0 0 0 0 0
26-10-2020 16.9 (14:10) 6 (23:00) 11.4 15.56 (11:40) 8.33 (11:40) 0 0 0 0 0
25-10-2020 23.2 (13:50) 9.4 (08:00) 16.3 11.39 (12:50) 6.11 (15:50) 0 0 0 0 0
24-10-2020 22.2 (15:00) 7.7 (00:00) 15 11.11 (18:10) 3.61 (10:30) 0 0 0 0 0
23-10-2020 21.5 (15:10) 10.5 (00:00) 16 9.72 (14:40) 5 (14:50) 0 0 0 0 0
22-10-2020 20 (14:00) 14.3 (00:00) 17.2 6.39 (21:30) 2.78 (02:40) 4.6 0 0 3.2 1.4
21-10-2020 26.3 (15:00) 12.9 (00:00) 19.6 7.78 (14:10) 3.33 (14:10) 0 0 0 0 0
20-10-2020 18.7 (16:30) 12.9 (00:00) 15.8 5.28 (16:40) 2.5 (16:40) 0 0 0 0 0
19-10-2020 20.8 (14:20) 7.3 (00:00) 14 10 (15:20) 3.61 (17:00) 0 0 0 0 0
18-10-2020 21.6 (14:50) 4.9 (00:00) 13.3 7.78 (14:40) 3.89 (14:40) 0 0 0 0 0
17-10-2020 21.7 (15:00) 3.9 (00:00) 12.8 7.22 (15:40) 3.33 (16:00) 0 0 0 0 0
16-10-2020 19.5 (16:10) 6.8 (00:00) 13.2 10.83 (00:50) 6.67 (00:50) 0 0 0 0 0
15-10-2020 18.6 (14:20) 9.7 (00:00) 14.2 13.61 (14:50) 8.06 (16:10) 0 0 0 0 0
14-10-2020 20.3 (14:20) 10 (00:00) 15.1 11.94 (16:40) 6.11 (11:10) 0 0 0 0 0
13-10-2020 25 (15:40) 11.1 (00:00) 18.1 11.11 (06:20) 6.11 (11:00) 0 0 0 0 0
12-10-2020 20.9 (15:50) 9.3 (00:00) 15.1 14.17 (07:20) 7.22 (07:00) 0 0 0 0 0
11-10-2020 21.4 (16:10) 12 (00:00) 16.7 15.28 (20:50) 8.33 (20:50) 0 0 0 0 0
10-10-2020 23.1 (14:50) 12.4 (00:00) 17.8 7.22 (23:59) 3.06 (16:40) 0.6 0 0 0.6 0
09-10-2020 24.9 (13:50) 12.1 (00:00) 18.5 6.94 (14:00) 3.33 (14:00) 0 0 0 0 0
08-10-2020 26.4 (15:20) 11.1 (00:00) 18.8 6.11 (18:20) 2.78 (18:20) 0 0 0 0 0
07-10-2020 30.1 (15:50) 12.5 (00:00) 21.3 9.17 (09:50) 5 (09:50) 0 0 0 0 0
06-10-2020 28.6 (15:20) 6.1 (00:00) 17.4 8.61 (11:20) 4.72 (11:00) 0 0 0 0 0
05-10-2020 22.4 (15:00) 7.2 (00:00) 14.8 9.44 (11:20) 5.83 (11:10) 0 0 0 0 0
04-10-2020 22.5 (14:20) 7.2 (00:00) 14.8 12.78 (14:00) 6.67 (13:20) 0 0 0 0 0
03-10-2020 22.2 (16:10) 6.3 (00:00) 14.3 10.83 (01:20) 5 (11:20) 0 0 0 0 0
02-10-2020 20.1 (13:30) 10.5 (00:00) 15.3 20 (16:20) 9.44 (16:10) 8.6 0 0 8.6 0
01-10-2020 30.7 (16:50) 9.7 (00:00) 20.2 9.17 (15:10) 4.44 (15:10) 0 0 0 0 0
30-09-2020 24.4 (14:40) 10 (00:00) 17.2 6.94 (16:50) 3.61 (16:50) 0 0 0 0 0

Gráficas

Temp. máximas Temp. mínimas Temp. medias Precipitaciones Rachas de viento máximas Velocidades máximas media en intervalos de 10 minutos

Datos horarios

Fecha y hora oficial Temperatura (ºC) Velocidad del viento (km/h) Dirección del viento Racha (km/h) Dirección de racha Precipitación (mm) Presión (hPa) Tendencia (hPa) Humedad (%)
2020-10-29 23:00:00 8.8 6 Sudoeste 11 Sudoeste 0 -- -- 90
2020-10-29 22:00:00 9.7 4 Sudoeste 14 Sudoeste 0 -- -- 88
2020-10-29 21:00:00 10 6 Sudoeste 12 Sudoeste 0 -- -- 85
2020-10-29 20:00:00 11 9 Sudoeste 13 Sudoeste 0 -- -- 83
2020-10-29 19:00:00 12.6 9 Sudoeste 11 Sudoeste 0 -- -- 79
2020-10-29 18:00:00 16 3 Sur 11 Sudeste 0 -- -- 68
2020-10-29 17:00:00 18.3 6 Sudeste 17 Sudeste 0 -- -- 64
2020-10-29 16:00:00 19.6 8 Sudeste 19 Este 0 -- -- 59
2020-10-29 15:00:00 21 8 Este 21 Este 0 -- -- 53
2020-10-29 14:00:00 21.3 9 Sudeste 22 Sudeste 0 -- -- 49
2020-10-29 13:00:00 21.8 7 Norte 20 Nordeste 0 -- -- 47
2020-10-29 12:00:00 21 7 Sudeste 16 Sudeste 0 -- -- 47
2020-10-29 11:00:00 20 7 Sudeste 16 Sudeste 0 -- -- 51
2020-10-29 10:00:00 17.3 0 Calma 6 Sudoeste 0 -- -- 60
2020-10-29 09:00:00 10.4 2 Oeste 14 Sudoeste 0 -- -- 87
2020-10-29 08:00:00 8.8 4 Oeste 15 Sudoeste 0 -- -- 89
2020-10-29 07:00:00 9.2 12 Sudoeste 15 Sudoeste 0 -- -- 87
2020-10-29 06:00:00 9.2 9 Sudoeste 13 Sudoeste 0 -- -- 88
2020-10-29 05:00:00 9.2 7 Sudoeste 13 Sudoeste 0 -- -- 89
2020-10-29 04:00:00 9.6 11 Sudoeste 14 Sudoeste 0 -- -- 87
2020-10-29 03:00:00 9.3 5 Sudoeste 13 Sudoeste 0 -- -- 88
2020-10-29 02:00:00 8.3 5 Oeste 15 Sudoeste 0 -- -- 89
2020-10-29 01:00:00 8.3 6 Sudoeste 12 Sudoeste 0 -- -- 89
2020-10-29 00:00:00 8.8 3 Oeste 14 Sudoeste 0 -- -- 84
2020-10-28 23:00:00 9.3 5 Oeste 13 Sudoeste 0 -- -- 82
2020-10-28 22:00:00 9.7 7 Sudoeste 14 Sudoeste 0 -- -- 80
2020-10-28 21:00:00 10.5 10 Sudoeste 14 Sudoeste 0 -- -- 77
2020-10-28 20:00:00 11.9 5 Sudoeste 12 Sudoeste 0 -- -- 72
2020-10-28 19:00:00 13.7 3 Sudoeste 12 Sudoeste 0 -- -- 66
2020-10-28 18:00:00 16.3 4 Sudoeste 10 Este 0 -- -- 57
2020-10-28 17:00:00 18.6 7 Sudeste 17 Sudeste 0 -- -- 50
2020-10-28 16:00:00 19.8 8 Este 19 Sudeste 0 -- -- 46
2020-10-28 15:00:00 21.1 9 Sudeste 19 Este 0 -- -- 42
2020-10-28 14:00:00 22.4 7 Sudeste 18 Sudeste 0 -- -- 38
2020-10-28 13:00:00 22.9 4 Nordeste 17 Sudeste 0 -- -- 36
2020-10-28 12:00:00 21.9 5 Sudeste 14 Sudeste 0 -- -- 38
2020-10-28 11:00:00 21.1 5 Sudeste 10 Sudeste 0 -- -- 42
2020-10-28 10:00:00 18 0 Calma 5 Sudoeste 0 -- -- 55
2020-10-28 09:00:00 11.2 3 Sudoeste 14 Sudoeste 0 -- -- 77
2020-10-28 08:00:00 10.5 10 Sudoeste 13 Sudoeste 0 -- -- 75
2020-10-28 07:00:00 11.9 4 Sudoeste 6 Sudoeste 0 -- -- 69
2020-10-28 06:00:00 12.1 0 Calma 8 Noroeste 0 -- -- 68
2020-10-28 05:00:00 11.3 0 Calma 12 Norte 0 -- -- 69
2020-10-28 04:00:00 12.7 2 Oeste 20 Norte 0 -- -- 60
2020-10-28 03:00:00 13.8 8 Noroeste 17 Noroeste 0 -- -- 56
2020-10-28 02:00:00 11.1 2 Oeste 10 Noroeste 0 -- -- 62
2020-10-28 01:00:00 13.7 3 Noroeste 24 Noroeste 0 -- -- 53
2020-10-28 00:00:00 14.7 14 Noroeste 31 Oeste 0 -- -- 51
2020-10-27 23:00:00 11.3 5 Oeste 13 Oeste 0 -- -- 58
2020-10-27 22:00:00 9.4 4 Oeste 15 Sudoeste 0 -- -- 63
2020-10-27 21:00:00 9.6 11 Sudoeste 14 Sudoeste 0 -- -- 62
2020-10-27 20:00:00 10.4 12 Sudoeste 14 Sudoeste 0 -- -- 58
2020-10-27 19:00:00 12.5 5 Sudoeste 13 Este 0 -- -- 51
2020-10-27 18:00:00 16.7 0 Calma 11 Sudoeste 0 -- -- 37
2020-10-27 17:00:00 18.4 4 Sudoeste 14 Oeste 0 -- -- 34
2020-10-27 16:00:00 19.2 5 Sudoeste 15 Sudeste 0 -- -- 32
2020-10-27 15:00:00 19.5 5 Oeste 14 Sur 0 -- -- 32
2020-10-27 14:00:00 19.6 4 Sudoeste 14 Norte 0 -- -- 31
2020-10-27 13:00:00 18.7 4 Norte 18 Norte 0 -- -- 33
2020-10-27 12:00:00 17.7 6 Nordeste 28 Noroeste 0 -- -- 35
2020-10-27 11:00:00 16.1 17 Norte 36 Noroeste 0 -- -- 37
2020-10-27 10:00:00 14.6 17 Norte 36 Norte 0 -- -- 42
2020-10-27 09:00:00 11.4 16 Noroeste 24 Norte 0 -- -- 51
2020-10-27 08:00:00 11.1 13 Norte 39 Noroeste 0 -- -- 51
2020-10-27 07:00:00 10.5 17 Norte 30 Noroeste 0 -- -- 53
2020-10-27 06:00:00 8.2 6 Noroeste 17 Noroeste 0 -- -- 59
2020-10-27 05:00:00 6.9 5 Oeste 13 Noroeste 0 -- -- 60
2020-10-27 04:00:00 8.5 6 Noroeste 15 Norte 0 -- -- 53
2020-10-27 03:00:00 9.4 5 Noroeste 15 Noroeste 0 -- -- 49
2020-10-27 02:00:00 7.1 6 Oeste 15 Sudoeste 0 -- -- 58
2020-10-27 01:00:00 8.1 8 Sudoeste 11 Sudoeste 0 -- -- 57
2020-10-27 00:00:00 9.4 6 Oeste 23 Noroeste 0 -- -- 51
2020-10-26 23:00:00 6 6 Oeste 15 Sudoeste 0 -- -- 66
2020-10-26 22:00:00 6.5 8 Sudoeste 13 Sudoeste 0 -- -- 65
2020-10-26 21:00:00 8.7 12 Sudoeste 15 Sudoeste 0 -- -- 56
2020-10-26 20:00:00 13 14 Norte 24 Norte 0 -- -- 41
2020-10-26 19:00:00 12.6 3 Noroeste 34 Norte 0 -- -- 42
2020-10-26 18:00:00 14.9 23 Norte 40 Norte 0 -- -- 35
2020-10-26 17:00:00 15.6 18 Norte 40 Norte 0 -- -- 33
2020-10-26 16:00:00 16.3 22 Norte 45 Norte 0 -- -- 34
2020-10-26 15:00:00 16.6 19 Norte 45 Noroeste 0 -- -- 34
2020-10-26 14:00:00 16.5 16 Norte 53 Noroeste 0 -- -- 34
2020-10-26 13:00:00 16.2 24 Norte 49 Norte 0 -- -- 35
2020-10-26 12:00:00 15.5 28 Norte 56 Norte 0 -- -- 38
2020-10-26 11:00:00 14.8 26 Norte 47 Norte 0 -- -- 41
2020-10-26 10:00:00 14.1 19 Norte 32 Norte 0 -- -- 46
2020-10-26 09:00:00 12.3 14 Norte 24 Norte 0 -- -- 54
2020-10-26 08:00:00 9.9 8 Noroeste 20 Noroeste 0 -- -- 63
2020-10-26 07:00:00 10.7 7 Noroeste 29 Norte 0 -- -- 60
2020-10-26 06:00:00 11.6 2 Oeste 8 Sudoeste 0 -- -- 66
2020-10-26 05:00:00 13.6 3 Oeste 13 Noroeste 0 -- -- 63
2020-10-26 04:00:00 14.2 7 Oeste 18 Norte 0 -- -- 63
2020-10-26 03:00:00 14.8 9 Oeste 25 Noroeste 0 -- -- 62
2020-10-26 02:00:00 14.5 8 Oeste 21 Oeste 0 -- -- 60
2020-10-26 01:00:00 14.8 6 Oeste 30 Oeste 0 -- -- 65
2020-10-26 00:00:00 15.2 13 Noroeste 25 Noroeste 0 -- -- 67
2020-10-25 23:00:00 14.4 0 Calma 10 Oeste 0 -- -- 63
2020-10-25 22:00:00 15.3 4 Oeste 22 Oeste 0 -- -- 59
2020-10-25 21:00:00 16 3 Oeste 15 Oeste 0 -- -- 56
2020-10-25 20:00:00 16.2 6 Noroeste 19 Oeste 0 -- -- 55
2020-10-25 19:00:00 16.9 6 Noroeste 17 Norte 0 -- -- 51
2020-10-25 18:00:00 18.3 10 Noroeste 27 Noroeste 0 -- -- 47
2020-10-25 17:00:00 19.4 10 Noroeste 39 Oeste 0 -- -- 45
2020-10-25 16:00:00 20.6 15 Noroeste 41 Noroeste 0 -- -- 41
2020-10-25 15:00:00 22.1 11 Noroeste 37 Noroeste 0 -- -- 37
2020-10-25 14:00:00 23 13 Noroeste 40 Noroeste 0 -- -- 35
2020-10-25 13:00:00 22.3 21 Noroeste 41 Noroeste 0 -- -- 35
2020-10-25 12:00:00 22.6 12 Noroeste 28 Noroeste 0 -- -- 33
2020-10-25 11:00:00 20.5 10 Oeste 32 Noroeste 0 -- -- 36
2020-10-25 10:00:00 18.5 13 Oeste 33 Noroeste 0 -- -- 44
2020-10-25 09:00:00 15.9 10 Oeste 27 Oeste 0 -- -- 50
2020-10-25 08:00:00 9.4 0 Calma 9 Noroeste 0 -- -- 69
2020-10-25 07:00:00 12.4 2 Nordeste 17 Sudoeste 0 -- -- 57
2020-10-25 06:00:00 12.7 8 Sudoeste 18 Oeste 0 -- -- 59
2020-10-25 05:00:00 12.8 6 Oeste 16 Oeste 0 -- -- 58
2020-10-25 04:00:00 13.2 6 Oeste 19 Oeste 0 -- -- 56
2020-10-25 03:00:00 14.2 8 Oeste 29 Noroeste 0 -- -- 52
2020-10-25 02:00:00 14.2 15 Noroeste 27 Oeste 0 -- -- 54
2020-10-25 01:00:00 13 8 Oeste 24 Sudoeste 0 -- -- 61
2020-10-25 00:00:00 15.2 8 Oeste 20 Oeste 0 -- -- 53
2020-10-24 23:00:00 14.6 8 Oeste 19 Oeste 0 -- -- 56
2020-10-24 22:00:00 15.1 10 Sudoeste 16 Sudoeste 0 -- -- 55
2020-10-24 21:00:00 16.5 6 Oeste 17 Oeste 0 -- -- 50
2020-10-24 20:00:00 18.3 6 Noroeste 22 Sudoeste 0 -- -- 46
2020-10-24 19:00:00 19.5 8 Oeste 40 Sudoeste 0 -- -- 43
2020-10-24 18:00:00 20.1 9 Oeste 31 Sudoeste 0 -- -- 43
2020-10-24 17:00:00 21 10 Sudoeste 24 Sudoeste 0 -- -- 40
2020-10-24 16:00:00 22 9 Sur 17 Sur 0 -- -- 36
2020-10-24 15:00:00 22.2 5 Noroeste 14 Oeste 0 -- -- 31
2020-10-24 14:00:00 21.9 4 Sur 14 Oeste 0 -- -- 36
2020-10-24 13:00:00 20.2 7 Norte 18 Noroeste 0 -- -- 37
2020-10-24 12:00:00 19 6 Norte 15 Nordeste 0 -- -- 43
2020-10-24 11:00:00 17 6 Nordeste 20 Norte 0 -- -- 50
2020-10-24 10:00:00 12.1 0 Calma 13 Oeste 0 -- -- 71
2020-10-24 09:00:00 9.4 5 Noroeste 14 Noroeste 0 -- -- 74
2020-10-24 08:00:00 9.2 2 Oeste 15 Oeste 0 -- -- 74
2020-10-24 07:00:00 8.9 5 Oeste 13 Oeste 0 -- -- 76
2020-10-24 06:00:00 9.1 4 Oeste 9 Oeste 0 -- -- 76
2020-10-24 05:00:00 9.6 3 Oeste 12 Noroeste 0 -- -- 72
2020-10-24 04:00:00 8.1 3 Oeste 10 Sudoeste 0 -- -- 79
2020-10-24 03:00:00 8.7 5 Sudoeste 11 Sudoeste 0 -- -- 76
2020-10-24 02:00:00 10.5 5 Oeste 9 Oeste 0 -- -- 68
2020-10-24 01:00:00 11.7 2 Oeste 20 Noroeste 0 -- -- 61
2020-10-24 00:00:00 12 5 Noroeste 12 Noroeste 0 -- -- 59
2020-10-23 23:00:00 12.7 4 Oeste 16 Oeste 0 -- -- 58
2020-10-23 22:00:00 13.5 8 Oeste 17 Oeste 0 -- -- 55
2020-10-23 21:00:00 14.5 8 Oeste 21 Oeste 0 -- -- 52
2020-10-23 20:00:00 16 8 Noroeste 28 Noroeste 0 -- -- 49
2020-10-23 19:00:00 17.5 9 Noroeste 27 Noroeste 0 -- -- 44
2020-10-23 18:00:00 18.9 8 Noroeste 23 Noroeste 0 -- -- 41
2020-10-23 17:00:00 20 11 Noroeste 29 Norte 0 -- -- 38
2020-10-23 16:00:00 21.2 16 Norte 32 Norte 0 -- -- 35
2020-10-23 15:00:00 21.2 17 Noroeste 35 Norte 0 -- -- 39
2020-10-23 14:00:00 20.8 13 Noroeste 32 Noroeste 0 -- -- 43
2020-10-23 13:00:00 19.4 15 Noroeste 32 Noroeste 0 -- -- 47
2020-10-23 12:00:00 19.9 11 Noroeste 22 Noroeste 0 -- -- 51
2020-10-23 11:00:00 17.6 4 Noroeste 13 Sudoeste 0 -- -- 60
2020-10-23 10:00:00 11.8 5 Sudoeste 14 Sudoeste 0 -- -- 88
2020-10-23 09:00:00 11.4 6 Sudoeste 15 Oeste 0 -- -- 85
2020-10-23 08:00:00 11.3 6 Oeste 16 Oeste 0 -- -- 87
2020-10-23 07:00:00 13 12 Sudoeste 18 Oeste 0 -- -- 82
2020-10-23 06:00:00 12.9 11 Sudoeste 17 Sudoeste 0 -- -- 88
2020-10-23 05:00:00 12.1 4 Oeste 12 Oeste 0 -- -- 93
2020-10-23 04:00:00 13 5 Oeste 14 Noroeste 0 -- -- 94
2020-10-23 03:00:00 13 0 Calma 5 Oeste 0 -- -- 96
2020-10-23 02:00:00 13 3 Oeste 8 Sudoeste 0 -- -- 96
2020-10-23 01:00:00 13.2 0 Calma 5 Este 0 -- -- 93
2020-10-23 00:00:00 14.3 0 Calma 7 Sudoeste 0 -- -- 91
2020-10-22 23:00:00 15.3 4 Oeste 10 Sur 0 -- -- 90
2020-10-22 22:00:00 15.4 5 Sur 23 Sur 0 -- -- 90
2020-10-22 21:00:00 15.3 3 Sudeste 18 Sudoeste 0.2 -- -- 92
2020-10-22 20:00:00 15.7 4 Sur 7 Sur 0 -- -- 93
2020-10-22 19:00:00 16.4 0 Calma 5 Este 1.2 -- -- 91
2020-10-22 18:00:00 17.3 0 Calma 5 Sudeste 1.2 -- -- 89
2020-10-22 17:00:00 18 0 Calma 5 Sur 0.8 -- -- 87
2020-10-22 16:00:00 18 2 Sur 6 Sur 1 -- -- 87
2020-10-22 15:00:00 19.2 2 Sudeste 6 Norte 0.2 -- -- 78
2020-10-22 14:00:00 20 3 Noroeste 7 Norte 0 -- -- 65
2020-10-22 13:00:00 19.7 3 Nordeste 10 Oeste 0 -- -- 66
2020-10-22 12:00:00 18.9 4 Sudoeste 10 Sudoeste 0 -- -- 66
2020-10-22 11:00:00 18.3 3 Sudeste 7 Sur 0 -- -- 67
2020-10-22 10:00:00 17.3 0 Calma 7 Sur 0 -- -- 68
2020-10-22 09:00:00 15.4 6 Sudeste 10 Sudeste 0 -- -- 71
2020-10-22 08:00:00 14.7 7 Sudoeste 12 Sudoeste 0 -- -- 74
2020-10-22 07:00:00 14.7 4 Sudoeste 8 Sudoeste 0 -- -- 78
2020-10-22 06:00:00 14.5 3 Oeste 8 Sudoeste 0 -- -- 79
2020-10-22 05:00:00 14.7 5 Sudoeste 9 Sudoeste 0 -- -- 81
2020-10-22 04:00:00 15.3 2 Noroeste 5 Sudoeste 0 -- -- 70
2020-10-22 03:00:00 15.3 3 Oeste 13 Sudoeste 0 -- -- 69
2020-10-22 02:00:00 15 5 Sudoeste 11 Sudoeste 0 -- -- 72
2020-10-22 01:00:00 15.3 4 Sudoeste 12 Sudoeste 0 -- -- 74
2020-10-22 00:00:00 14.7 6 Sudoeste 10 Sudoeste 0 -- -- 76
2020-10-21 23:00:00 14.5 10 Sudoeste 13 Sudoeste 0 -- -- 75
2020-10-21 22:00:00 13.7 8 Sudoeste 12 Sudoeste 0 -- -- 77
2020-10-21 21:00:00 15.3 4 Sudoeste 11 Sudoeste 0 -- -- 74
2020-10-21 20:00:00 16.3 8 Sudoeste 11 Sudoeste 0 -- -- 75
2020-10-21 19:00:00 19.6 0 Calma 9 Este 0 -- -- 68
2020-10-21 18:00:00 21.4 5 Este 17 Sudeste 0 -- -- 63
2020-10-21 17:00:00 24.4 3 Sudoeste 21 Oeste 0 -- -- 42
2020-10-21 16:00:00 25.5 6 Oeste 19 Noroeste 0 -- -- 34
2020-10-21 15:00:00 26.3 9 Noroeste 28 Noroeste 0 -- -- 35
2020-10-21 14:00:00 26 8 Noroeste 23 Noroeste 0 -- -- 36
2020-10-21 13:00:00 25.4 8 Oeste 23 Noroeste 0 -- -- 37
2020-10-21 12:00:00 23.6 4 Sudoeste 22 Oeste 0 -- -- 40
2020-10-21 11:00:00 19.6 3 Nordeste 13 Noroeste 0 -- -- 63
2020-10-21 10:00:00 13.3 2 Oeste 9 Sudoeste 0 -- -- 90
2020-10-21 09:00:00 13 7 Sudoeste 11 Sudoeste 0 -- -- 90
2020-10-21 08:00:00 13.4 0 Calma 8 Sudoeste 0 -- -- 87
2020-10-21 07:00:00 13.9 0 Calma 12 Sudoeste 0 -- -- 87
2020-10-21 06:00:00 13.7 7 Sudoeste 12 Sudoeste 0 -- -- 88
2020-10-21 05:00:00 14.1 9 Sudoeste 12 Sudoeste 0 -- -- 88
2020-10-21 04:00:00 14.8 5 Oeste 13 Sudoeste 0 -- -- 87
2020-10-21 03:00:00 14.6 6 Sudoeste 10 Sudoeste 0 -- -- 93
2020-10-21 02:00:00 14.2 6 Sudoeste 9 Sudoeste 0 -- -- 93
2020-10-21 01:00:00 14.3 5 Sudoeste 8 Sudoeste 0 -- -- 90
2020-10-21 00:00:00 15.7 0 Calma 8 Sur 0 -- -- 88
2020-10-20 23:00:00 15.8 4 Sudoeste 10 Sudoeste 0 -- -- 86
2020-10-20 22:00:00 16.2 3 Sudoeste 6 Sudoeste 0 -- -- 83
2020-10-20 21:00:00 16.7 3 Sudoeste 6 Oeste 0 -- -- 81
2020-10-20 20:00:00 17.1 3 Sudoeste 6 Sudoeste 0 -- -- 80
2020-10-20 19:00:00 17.5 4 Sudeste 14 Sudeste 0 -- -- 80
2020-10-20 18:00:00 17.9 6 Sudeste 17 Sudeste 0 -- -- 79
2020-10-20 17:00:00 18.4 8 Este 19 Sudeste 0 -- -- 77
2020-10-20 16:00:00 18.5 7 Este 15 Este 0 -- -- 75
2020-10-20 15:00:00 18.5 5 Sudeste 12 Sudeste 0 -- -- 78
2020-10-20 14:00:00 18.5 4 Sudeste 12 Sudeste 0 -- -- 73
2020-10-20 13:00:00 18 4 Sudeste 9 Nordeste 0 -- -- 78
2020-10-20 12:00:00 17 2 Nordeste 5 Nordeste 0 -- -- 82
2020-10-20 11:00:00 16.1 0 Calma 3 Norte 0 -- -- 84
2020-10-20 10:00:00 14.9 0 Calma 6 Sudoeste 0 -- -- 89
2020-10-20 09:00:00 13.6 5 Sudoeste 8 Sudoeste 0 -- -- 92
2020-10-20 08:00:00 13.2 3 Sudoeste 9 Sudoeste 0 -- -- 90
2020-10-20 07:00:00 13 6 Sudoeste 9 Sudoeste 0 -- -- 92
2020-10-20 06:00:00 13.7 0 Calma 7 Sudoeste 0 -- -- 90
2020-10-20 05:00:00 13.3 4 Sudoeste 10 Sudoeste 0 -- -- 90
2020-10-20 04:00:00 12.9 6 Sudoeste 11 Sudoeste 0 -- -- 90
2020-10-20 03:00:00 14 6 Sudoeste 9 Sudoeste 0 -- -- 87
2020-10-20 02:00:00 14.1 5 Sudoeste 7 Sudoeste 0 -- -- 88
2020-10-20 01:00:00 13.6 0 Calma 6 Sudoeste 0 -- -- 90
2020-10-20 00:00:00 12.9 0 Calma 11 Sudoeste 0 -- -- 91
2020-10-19 23:00:00 11.6 9 Sudoeste 12 Sudoeste 0 -- -- 91
2020-10-19 22:00:00 12.2 9 Sudoeste 12 Sudoeste 0 -- -- 88
2020-10-19 21:00:00 12.1 5 Sudoeste 10 Sudoeste 0 -- -- 87
2020-10-19 20:00:00 14.5 4 Sur 9 Sudeste 0 -- -- 79
2020-10-19 19:00:00 16.8 6 Sudeste 18 Este 0 -- -- 76
2020-10-19 18:00:00 17.6 10 Sudeste 23 Este 0 -- -- 69
2020-10-19 17:00:00 19 13 Sudeste 24 Este 0 -- -- 62
2020-10-19 16:00:00 20.5 8 Sudeste 36 Sudeste 0 -- -- 52
2020-10-19 15:00:00 20.2 12 Este 23 Sudeste 0 -- -- 53
2020-10-19 14:00:00 20.4 9 Sudeste 20 Sudeste 0 -- -- 53
2020-10-19 13:00:00 19.7 8 Sudeste 22 Este 0 -- -- 55
2020-10-19 12:00:00 17.1 4 Este 10 Este 0 -- -- 68
2020-10-19 11:00:00 16.2 3 Nordeste 5 Nordeste 0 -- -- 72
2020-10-19 10:00:00 11.3 4 Oeste 12 Sudoeste 0 -- -- 95
2020-10-19 09:00:00 8.3 8 Sudoeste 10 Sudoeste 0 -- -- 97
2020-10-19 08:00:00 7.3 6 Sudoeste 10 Sudoeste 0 -- -- 95
2020-10-19 07:00:00 7.9 3 Sudoeste 10 Sudoeste 0 -- -- 96
2020-10-19 06:00:00 8.2 4 Sudoeste 9 Sudoeste 0 -- -- 96
2020-10-19 05:00:00 8.4 5 Sudoeste 12 Sudoeste 0 -- -- 96
2020-10-19 04:00:00 8.4 6 Sudoeste 11 Sudoeste 0 -- -- 94
2020-10-19 03:00:00 9 5 Sudoeste 10 Sudoeste 0 -- -- 95
2020-10-19 02:00:00 9.9 6 Sudoeste 10 Sudoeste 0 -- -- 92
2020-10-19 01:00:00 10.5 3 Sudoeste 10 Sudoeste 0 -- -- 93
2020-10-19 00:00:00 11.2 4 Sudoeste 12 Sudoeste 0 -- -- 91
2020-10-18 23:00:00 11.5 9 Sudoeste 12 Sudoeste 0 -- -- 90
2020-10-18 22:00:00 11.8 7 Sudoeste 11 Sudoeste 0 -- -- 87
2020-10-18 21:00:00 12.2 6 Sudoeste 10 Sudoeste 0 -- -- 85
2020-10-18 20:00:00 13.7 6 Sudoeste 9 Sudeste 0 -- -- 77
2020-10-18 19:00:00 16.6 3 Sur 17 Sudeste 0 -- -- 70
2020-10-18 18:00:00 17.9 8 Sudeste 21 Sudeste 0 -- -- 64
2020-10-18 17:00:00 19.2 10 Sudeste 22 Este 0 -- -- 59
2020-10-18 16:00:00 20.4 11 Este 24 Este 0 -- -- 53
2020-10-18 15:00:00 21.4 7 Este 28 Sudeste 0 -- -- 49
2020-10-18 14:00:00 20.7 10 Este 21 Este 0 -- -- 46
2020-10-18 13:00:00 21.4 6 Este 15 Este 0 -- -- 34
2020-10-18 12:00:00 19.3 5 Este 10 Este 0 -- -- 33
2020-10-18 11:00:00 16.9 5 Sudeste 8 Sudeste 0 -- -- 45
2020-10-18 10:00:00 9.3 2 Oeste 12 Sudoeste 0 -- -- 71
2020-10-18 09:00:00 6.2 4 Sudoeste 12 Sudoeste 0 -- -- 79
2020-10-18 08:00:00 5.8 2 Oeste 13 Sudoeste 0 -- -- 78
2020-10-18 07:00:00 5.4 3 Oeste 10 Oeste 0 -- -- 82
2020-10-18 06:00:00 5.1 8 Sudoeste 12 Sudoeste 0 -- -- 86
2020-10-18 05:00:00 5.5 2 Oeste 12 Sudoeste 0 -- -- 85
2020-10-18 04:00:00 5.8 2 Oeste 12 Sudoeste 0 -- -- 87
2020-10-18 03:00:00 6.5 2 Oeste 10 Sudoeste 0 -- -- 88
2020-10-18 02:00:00 7.2 4 Sudoeste 11 Sudoeste 0 -- -- 90
2020-10-18 01:00:00 7.9 4 Sudoeste 12 Sudoeste 0 -- -- 90
2020-10-18 00:00:00 8.1 5 Sudoeste 12 Sudoeste 0 -- -- 90
2020-10-17 23:00:00 8.4 9 Sudoeste 13 Sudoeste 0 -- -- 87
2020-10-17 22:00:00 8.9 8 Sudoeste 13 Sudoeste 0 -- -- 84
2020-10-17 21:00:00 9.8 4 Sudoeste 10 Sudoeste 0 -- -- 79
2020-10-17 20:00:00 11.7 4 Sudoeste 12 Sudoeste 0 -- -- 71
2020-10-17 19:00:00 15.1 4 Sudeste 18 Sudeste 0 -- -- 63
2020-10-17 18:00:00 16.6 7 Sudeste 21 Sudeste 0 -- -- 57
2020-10-17 17:00:00 18.5 9 Sudeste 25 Sudeste 0 -- -- 48
2020-10-17 16:00:00 19.9 12 Sudeste 26 Este 0 -- -- 40
2020-10-17 15:00:00 21.7 5 Sur 17 Este 0 -- -- 28
2020-10-17 14:00:00 20.1 5 Sudeste 15 Norte 0 -- -- 35
2020-10-17 13:00:00 18.6 7 Nordeste 16 Nordeste 0 -- -- 43
2020-10-17 12:00:00 17.3 4 Sudeste 9 Norte 0 -- -- 46
2020-10-17 11:00:00 14.6 4 Este 8 Este 0 -- -- 52
2020-10-17 10:00:00 8.3 2 Sur 9 Sudoeste 0 -- -- 86
2020-10-17 09:00:00 4.9 0 Calma 10 Sudoeste 0 -- -- 96
2020-10-17 08:00:00 3.9 0 Calma 6 Sudoeste 0 -- -- 93
2020-10-17 07:00:00 4.2 0 Calma 7 Sudoeste 0 -- -- 94
2020-10-17 06:00:00 4.2 3 Oeste 9 Sudoeste 0 -- -- 92
2020-10-17 05:00:00 5.1 2 Sudoeste 9 Sudoeste 0 -- -- 90
2020-10-17 04:00:00 5.6 4 Sudoeste 10 Sudoeste 0 -- -- 89
2020-10-17 03:00:00 5.5 3 Sudoeste 12 Sudoeste 0 -- -- 88
2020-10-17 02:00:00 5.6 6 Sudoeste 11 Sudoeste 0 -- -- 88
2020-10-17 01:00:00 5.9 0 Calma 11 Sudoeste 0 -- -- 84
2020-10-17 00:00:00 6.8 4 Sudoeste 13 Sudoeste 0 -- -- 83
2020-10-16 23:00:00 7.1 5 Sudoeste 12 Sudoeste 0 -- -- 81
2020-10-16 22:00:00 7.3 9 Sudoeste 13 Sudoeste 0 -- -- 79
2020-10-16 21:00:00 8.3 9 Sudoeste 12 Sudoeste 0 -- -- 74
2020-10-16 20:00:00 10.2 4 Sudoeste 9 Sudoeste 0 -- -- 65
2020-10-16 19:00:00 13.3 4 Sudeste 18 Sudeste 0 -- -- 55
2020-10-16 18:00:00 14.9 8 Sudeste 23 Sudeste 0 -- -- 47
2020-10-16 17:00:00 17.5 10 Sudeste 21 Sudeste 0 -- -- 35
2020-10-16 16:00:00 19.4 4 Noroeste 19 Sudoeste 0 -- -- 24
2020-10-16 15:00:00 18.8 5 Oeste 19 Sur 0 -- -- 26
2020-10-16 14:00:00 18 8 Sur 25 Sudoeste 0 -- -- 27
2020-10-16 13:00:00 17.4 8 Sudoeste 22 Sur 0 -- -- 29
2020-10-16 12:00:00 15.7 11 Norte 27 Norte 0 -- -- 33
2020-10-16 11:00:00 14 15 Norte 26 Norte 0 -- -- 39
2020-10-16 10:00:00 12.7 12 Noroeste 26 Noroeste 0 -- -- 43
2020-10-16 09:00:00 8.5 10 Noroeste 20 Noroeste 0 -- -- 54
2020-10-16 08:00:00 8 7 Noroeste 22 Noroeste 0 -- -- 54
2020-10-16 07:00:00 8.7 10 Noroeste 31 Noroeste 0 -- -- 53
2020-10-16 06:00:00 9.1 13 Noroeste 33 Noroeste 0 -- -- 49
2020-10-16 05:00:00 9.3 10 Noroeste 29 Noroeste 0 -- -- 46
2020-10-16 04:00:00 9.5 12 Norte 35 Norte 0 -- -- 45
2020-10-16 03:00:00 10.1 19 Norte 35 Norte 0 -- -- 46
2020-10-16 02:00:00 10.7 20 Norte 34 Norte 0 -- -- 45
2020-10-16 01:00:00 11.2 19 Norte 39 Norte 0 -- -- 48
2020-10-16 00:00:00 12 16 Norte 31 Norte 0 -- -- 45
2020-10-15 23:00:00 12.8 14 Norte 32 Norte 0 -- -- 43
2020-10-15 22:00:00 13.8 19 Norte 31 Noroeste 0 -- -- 43
2020-10-15 21:00:00 13.4 9 Noroeste 24 Norte 0 -- -- 43
2020-10-15 20:00:00 14.9 12 Norte 26 Noroeste 0 -- -- 38
2020-10-15 19:00:00 16.2 17 Norte 37 Noroeste 0 -- -- 33
2020-10-15 18:00:00 17 17 Norte 40 Norte 0 -- -- 31
2020-10-15 17:00:00 17.9 19 Norte 45 Noroeste 0 -- -- 30
2020-10-15 16:00:00 18.2 24 Norte 46 Norte 0 -- -- 30
2020-10-15 15:00:00 18.3 21 Norte 49 Noroeste 0 -- -- 31
2020-10-15 14:00:00 18.4 27 Norte 48 Noroeste 0 -- -- 29
2020-10-15 13:00:00 17.5 23 Norte 38 Norte 0 -- -- 31
2020-10-15 12:00:00 15.9 21 Norte 38 Norte 0 -- -- 35
2020-10-15 11:00:00 14.4 21 Norte 42 Noroeste 0 -- -- 37
2020-10-15 10:00:00 12.7 17 Norte 34 Noroeste 0 -- -- 42
2020-10-15 09:00:00 9.7 5 Noroeste 31 Norte 0 -- -- 53
2020-10-15 08:00:00 9.9 19 Norte 41 Norte 0 -- -- 54
2020-10-15 07:00:00 10.2 22 Norte 45 Norte 0 -- -- 50
2020-10-15 06:00:00 10.4 21 Norte 40 Norte 0 -- -- 50
2020-10-15 05:00:00 10.3 17 Norte 37 Norte 0 -- -- 52
2020-10-15 04:00:00 10.7 21 Norte 36 Norte 0 -- -- 54
2020-10-15 03:00:00 11.4 14 Norte 41 Norte 0 -- -- 53
2020-10-15 02:00:00 12 24 Norte 45 Norte 0 -- -- 51
2020-10-15 01:00:00 11.9 9 Noroeste 24 Noroeste 0 -- -- 52
2020-10-15 00:00:00 11.3 8 Noroeste 17 Noroeste 0 -- -- 54
2020-10-14 23:00:00 11.7 3 Oeste 23 Noroeste 0 -- -- 51
2020-10-14 22:00:00 14.5 15 Norte 25 Norte 0 -- -- 42
2020-10-14 21:00:00 14.7 12 Norte 23 Norte 0 -- -- 39
2020-10-14 20:00:00 15.8 7 Noroeste 33 Norte 0 -- -- 33
2020-10-14 19:00:00 17.1 10 Norte 43 Nordeste 0 -- -- 30
2020-10-14 18:00:00 18.3 16 Norte 37 Noroeste 0 -- -- 27
2020-10-14 17:00:00 19.2 15 Norte 43 Noroeste 0 -- -- 26
2020-10-14 16:00:00 19.7 13 Norte 39 Norte 0 -- -- 26
2020-10-14 15:00:00 20.2 20 Noroeste 37 Norte 0 -- -- 29
2020-10-14 14:00:00 19.9 18 Norte 39 Norte 0 -- -- 29
2020-10-14 13:00:00 19.5 19 Norte 33 Noroeste 0 -- -- 33
2020-10-14 12:00:00 17 19 Norte 37 Noroeste 0 -- -- 41
2020-10-14 11:00:00 16.7 20 Norte 34 Noroeste 0 -- -- 46
2020-10-14 10:00:00 15.2 16 Norte 25 Norte 0 -- -- 55
2020-10-14 09:00:00 14.3 8 Noroeste 16 Noroeste 0 -- -- 62
2020-10-14 08:00:00 12.4 3 Sudoeste 6 Noroeste 0 -- -- 81
2020-10-14 07:00:00 12.1 0 Calma 5 Sudoeste 0 -- -- 82
2020-10-14 06:00:00 11.5 3 Sudoeste 5 Sudeste 0 -- -- 85
2020-10-14 05:00:00 10.4 3 Sudoeste 9 Sudoeste 0 -- -- 88
2020-10-14 04:00:00 10.3 4 Sudoeste 10 Sudoeste 0 -- -- 85
2020-10-14 03:00:00 11.5 4 Sudoeste 13 Sudoeste 0 -- -- 80
2020-10-14 02:00:00 12.3 10 Sudoeste 14 Sudoeste 0 -- -- 77
2020-10-14 01:00:00 12.1 10 Sudoeste 13 Sudoeste 0 -- -- 79
2020-10-14 00:00:00 12.9 6 Sudoeste 11 Sudoeste 0 -- -- 79
2020-10-13 23:00:00 13.5 7 Sudoeste 12 Sudoeste 0 -- -- 78
2020-10-13 22:00:00 14.3 4 Sudoeste 11 Sudoeste 0 -- -- 73
2020-10-13 21:00:00 16.4 2 Oeste 10 Sur 0 -- -- 63
2020-10-13 20:00:00 19.3 5 Sudeste 12 Sur 0 -- -- 58
2020-10-13 19:00:00 22.7 5 Nordeste 15 Norte 0 -- -- 41
2020-10-13 18:00:00 24.2 7 Nordeste 16 Norte 0 -- -- 32
2020-10-13 17:00:00 24.8 4 Norte 19 Norte 0 -- -- 31
2020-10-13 16:00:00 24.5 9 Norte 30 Noroeste 0 -- -- 33
2020-10-13 15:00:00 24.7 16 Norte 31 Noroeste 0 -- -- 34
2020-10-13 14:00:00 23.9 10 Norte 31 Nordeste 0 -- -- 38
2020-10-13 13:00:00 23.4 15 Norte 35 Norte 0 -- -- 38
2020-10-13 12:00:00 22.2 18 Noroeste 31 Norte 0 -- -- 40
2020-10-13 11:00:00 -- -- -- -- -- -- -- -- --
2020-10-13 10:00:00 -- -- -- -- -- -- -- -- --
2020-10-13 09:00:00 15.2 7 Noroeste 25 Noroeste 0 -- -- 53
2020-10-13 08:00:00 14.1 8 Noroeste 18 Noroeste 0 -- -- 53
2020-10-13 07:00:00 15.4 6 Noroeste 40 Norte 0 -- -- 47
2020-10-13 06:00:00 15.5 15 Noroeste 32 Noroeste 0 -- -- 45
2020-10-13 05:00:00 14.8 12 Noroeste 26 Noroeste 0 -- -- 47
2020-10-13 04:00:00 14.7 15 Noroeste 33 Noroeste 0 -- -- 48
2020-10-13 03:00:00 15.4 9 Norte 27 Norte 0 -- -- 45
2020-10-13 02:00:00 15.5 18 Norte 31 Norte 0 -- -- 44
2020-10-13 01:00:00 -- -- -- -- -- -- -- -- --
2020-10-13 00:00:00 12.3 3 Oeste 26 Norte 0 -- -- 53
2020-10-12 23:00:00 11.4 4 Noroeste 12 Oeste 0 -- -- 56
2020-10-12 22:00:00 9.5 3 Sudoeste 15 Sudoeste 0 -- -- 65
2020-10-12 21:00:00 10.6 8 Sudoeste 12 Sudoeste 0 -- -- 61
2020-10-12 20:00:00 14.1 4 Sudoeste 16 Sur 0 -- -- 52
2020-10-12 19:00:00 17 3 Sur 22 Norte 0 -- -- 45
2020-10-12 18:00:00 19.6 8 Noroeste 21 Norte 0 -- -- 31
2020-10-12 17:00:00 20.6 14 Norte 28 Noroeste 0 -- -- 30
2020-10-12 16:00:00 20.7 17 Norte 28 Noroeste 0 -- -- 28
2020-10-12 15:00:00 20.1 16 Norte 33 Noroeste 0 -- -- 31
2020-10-12 14:00:00 19.8 14 Noroeste 29 Norte 0 -- -- 31
2020-10-12 13:00:00 20.1 15 Noroeste 33 Noroeste 0 -- -- 32
2020-10-12 12:00:00 18.1 20 Norte 35 Norte 0 -- -- 36
2020-10-12 11:00:00 16.5 21 Noroeste 36 Noroeste 0 -- -- 40
2020-10-12 10:00:00 14.7 18 Norte 42 Noroeste 0 -- -- 46
2020-10-12 09:00:00 12.2 20 Norte 45 Noroeste 0 -- -- 52
2020-10-12 08:00:00 11.4 15 Noroeste 51 Norte 0 -- -- 54
2020-10-12 07:00:00 11.8 26 Norte 46 Norte 0 -- -- 53
2020-10-12 06:00:00 11.7 24 Noroeste 44 Noroeste 0 -- -- 53
2020-10-12 05:00:00 11.3 16 Noroeste 32 Noroeste 0 -- -- 55
2020-10-12 04:00:00 -- -- -- -- -- -- -- -- --
2020-10-12 03:00:00 11.6 17 Noroeste 38 Noroeste 0 -- -- 52
2020-10-12 02:00:00 12.1 18 Noroeste 42 Noroeste 0 -- -- 51
2020-10-12 01:00:00 12.7 20 Noroeste 41 Noroeste 0 -- -- 50
2020-10-12 00:00:00 13.1 19 Noroeste 47 Noroeste 0 -- -- 47
2020-10-11 23:00:00 13.8 30 Noroeste 55 Noroeste 0 -- -- 45
2020-10-11 22:00:00 14.4 28 Noroeste 49 Noroeste 0 -- -- 42
2020-10-11 21:00:00 -- -- -- -- -- -- -- -- --
2020-10-11 20:00:00 -- -- -- -- -- -- -- -- --
2020-10-11 19:00:00 17.6 28 Norte 54 Noroeste 0 -- -- 30
2020-10-11 18:00:00 18.9 21 Norte 41 Norte 0 -- -- 26
2020-10-11 17:00:00 20.3 22 Noroeste 45 Noroeste 0 -- -- 27
2020-10-11 16:00:00 21.3 18 Noroeste 38 Noroeste 0 -- -- 26
2020-10-11 15:00:00 20.5 19 Noroeste 41 Noroeste 0 -- -- 28
2020-10-11 14:00:00 20.6 19 Noroeste 44 Noroeste 0 -- -- 29
2020-10-11 13:00:00 18.8 23 Norte 41 Noroeste 0 -- -- 32
2020-10-11 12:00:00 17.4 19 Norte 45 Norte 0 -- -- 34
2020-10-11 11:00:00 15.7 23 Norte 54 Norte 0 -- -- 39
2020-10-11 10:00:00 14.9 15 Norte 35 Norte 0 -- -- 44
2020-10-11 09:00:00 12.6 26 Norte 48 Norte 0 -- -- 49
2020-10-11 08:00:00 12.3 22 Noroeste 42 Noroeste 0 -- -- 55
2020-10-11 07:00:00 12.7 14 Noroeste 37 Norte 0 -- -- 55
2020-10-11 06:00:00 12.9 17 Noroeste 36 Norte 0 -- -- 55
2020-10-11 05:00:00 13.2 14 Noroeste 41 Noroeste 0 -- -- 55
2020-10-11 04:00:00 14.1 16 Noroeste 37 Norte 0 -- -- 52
2020-10-11 03:00:00 14.9 13 Norte 27 Norte 0 -- -- 51
2020-10-11 02:00:00 15.2 12 Norte 24 Noroeste 0 -- -- 61
2020-10-11 01:00:00 15.7 9 Noroeste 26 Noroeste 0 -- -- 65
2020-10-11 00:00:00 16.4 10 Noroeste 26 Noroeste 0 -- -- 70
2020-10-10 23:00:00 16.1 5 Sudoeste 9 Sudoeste 0 -- -- 95
2020-10-10 22:00:00 15.9 5 Sudoeste 9 Sudoeste 0 -- -- 94
2020-10-10 21:00:00 16.9 3 Sudoeste 9 Sudoeste 0 -- -- 92
2020-10-10 20:00:00 17.4 2 Sudoeste 7 Sudoeste 0 -- -- 90
2020-10-10 19:00:00 18.7 2 Sudoeste 7 Sudeste 0 -- -- 88
2020-10-10 18:00:00 19.8 2 Sur 17 Sudeste 0.6 -- -- 81
2020-10-10 17:00:00 21.1 8 Sudeste 21 Sudeste 0 -- -- 67
2020-10-10 16:00:00 21.8 7 Sudeste 17 Sudeste 0 -- -- 62
2020-10-10 15:00:00 22.7 8 Este 17 Este 0 -- -- 60
2020-10-10 14:00:00 21.8 7 Nordeste 17 Nordeste 0 -- -- 63
2020-10-10 13:00:00 20.5 3 Sudeste 9 Este 0 -- -- 71
2020-10-10 12:00:00 20.1 4 Sudeste 8 Sudeste 0 -- -- 70
2020-10-10 11:00:00 19.4 2 Norte 5 Norte 0 -- -- 76
2020-10-10 10:00:00 15.8 0 Calma 3 Sudoeste 0 -- -- 94
2020-10-10 09:00:00 13.1 0 Calma 8 Sudoeste 0 -- -- 97
2020-10-10 08:00:00 12.4 3 Sudoeste 9 Sudoeste 0 -- -- 96
2020-10-10 07:00:00 12.6 6 Sudoeste 9 Sudoeste 0 -- -- 94
2020-10-10 06:00:00 14 0 Calma 8 Sudoeste 0 -- -- 93
2020-10-10 05:00:00 14.9 3 Sudoeste 10 Sudoeste 0 -- -- 95
2020-10-10 04:00:00 13.8 8 Sudoeste 11 Sudoeste 0 -- -- 96
2020-10-10 03:00:00 13.2 9 Sudoeste 12 Sudoeste 0 -- -- 94
2020-10-10 02:00:00 13.5 5 Sudoeste 11 Sudoeste 0 -- -- 93
2020-10-10 01:00:00 14.1 9 Sudoeste 12 Sudoeste 0 -- -- 92
2020-10-10 00:00:00 15 7 Sudoeste 12 Sudoeste 0 -- -- 89
2020-10-09 23:00:00 16.6 7 Sudoeste 9 Sudoeste 0 -- -- 85
2020-10-09 22:00:00 18.2 0 Calma 9 Sur 0 -- -- 81
2020-10-09 21:00:00 18.8 5 Sudoeste 10 Sur 0 -- -- 81
2020-10-09 20:00:00 19.1 4 Sur 10 Este 0 -- -- 81
2020-10-09 19:00:00 19.5 4 Sur 14 Sudoeste 0 -- -- 79
2020-10-09 18:00:00 20.2 7 Sudeste 22 Sudeste 0 -- -- 77
2020-10-09 17:00:00 22.1 11 Sudeste 23 Este 0 -- -- 71
2020-10-09 16:00:00 23.3 11 Este 22 Este 0 -- -- 65
2020-10-09 15:00:00 23.9 10 Sudeste 22 Sudeste 0 -- -- 62
2020-10-09 14:00:00 24.7 12 Este 25 Este 0 -- -- 58
2020-10-09 13:00:00 24.5 10 Sudeste 18 Sudeste 0 -- -- 58
2020-10-09 12:00:00 24 6 Sudeste 15 Sudeste 0 -- -- 56
2020-10-09 11:00:00 21.2 5 Este 9 Sudeste 0 -- -- 64
2020-10-09 10:00:00 17.3 2 Sudeste 5 Sudoeste 0 -- -- 81
2020-10-09 09:00:00 13 2 Sudoeste 13 Sudoeste 0 -- -- 97
2020-10-09 08:00:00 12.3 10 Sudoeste 13 Sudoeste 0 -- -- 96
2020-10-09 07:00:00 12.1 5 Oeste 10 Sudoeste 0 -- -- 95
2020-10-09 06:00:00 12.3 5 Sudoeste 13 Sudoeste 0 -- -- 94
2020-10-09 05:00:00 12.5 8 Sudoeste 12 Sudoeste 0 -- -- 94
2020-10-09 04:00:00 12.8 5 Sudoeste 11 Sudoeste 0 -- -- 93
2020-10-09 03:00:00 13.8 7 Sudoeste 12 Sudoeste 0 -- -- 92
2020-10-09 02:00:00 14.5 10 Sudoeste 13 Sudoeste 0 -- -- 90
2020-10-09 01:00:00 15.7 6 Sudoeste 9 Sudoeste 0 -- -- 87
2020-10-09 00:00:00 17.9 3 Sudoeste 5 Sudoeste 0 -- -- 83
2020-10-08 23:00:00 18.5 0 Calma 3 Sudoeste 0 -- -- 83
2020-10-08 22:00:00 18.6 2 Sudeste 5 Este 0 -- -- 84
2020-10-08 21:00:00 18.4 2 Sudeste 6 Sudeste 0 -- -- 86
2020-10-08 20:00:00 18.9 2 Sudeste 15 Sudeste 0 -- -- 82
2020-10-08 19:00:00 20.4 7 Sudeste 22 Sudeste 0 -- -- 76
2020-10-08 18:00:00 23.2 7 Sur 18 Este 0 -- -- 62
2020-10-08 17:00:00 25.3 4 Sudeste 17 Sur 0 -- -- 54
2020-10-08 16:00:00 26.1 8 Sudoeste 19 Noroeste 0 -- -- 51
2020-10-08 15:00:00 26 6 Sudoeste 21 Sur 0 -- -- 48
2020-10-08 14:00:00 25.7 7 Sur 15 Sur 0 -- -- 47
2020-10-08 13:00:00 25.1 6 Noroeste 19 Oeste 0 -- -- 48
2020-10-08 12:00:00 23.3 4 Sudeste 12 Sudeste 0 -- -- 56
2020-10-08 11:00:00 21.6 4 Sudeste 8 Sudeste 0 -- -- 59
2020-10-08 10:00:00 16.9 0 Calma 6 Sudoeste 0 -- -- 76
2020-10-08 09:00:00 12.1 2 Oeste 10 Sudoeste 0 -- -- 93
2020-10-08 08:00:00 11.1 5 Sudoeste 9 Sudoeste 0 -- -- 92
2020-10-08 07:00:00 11.5 4 Sudoeste 8 Sudoeste 0 -- -- 91
2020-10-08 06:00:00 12.1 3 Sudoeste 9 Sudoeste 0 -- -- 88
2020-10-08 05:00:00 12.6 6 Sudoeste 12 Sudoeste 0 -- -- 86
2020-10-08 04:00:00 12.8 6 Sudoeste 12 Sudoeste 0 -- -- 85
2020-10-08 03:00:00 12.9 9 Sudoeste 13 Sudoeste 0 -- -- 84
2020-10-08 02:00:00 13.1 4 Sudoeste 10 Sudoeste 0 -- -- 82
2020-10-08 01:00:00 13.7 5 Sudoeste 9 Sudoeste 0 -- -- 77
2020-10-08 00:00:00 14.3 2 Oeste 12 Sudoeste 0 -- -- 70
2020-10-07 23:00:00 14.8 5 Sudoeste 12 Sudoeste 0 -- -- 67
2020-10-07 22:00:00 15.8 9 Sudoeste 14 Sudoeste 0 -- -- 62
2020-10-07 21:00:00 17.2 6 Sudoeste 13 Sudoeste 0 -- -- 58
2020-10-07 20:00:00 20.3 6 Sudoeste 11 Sudeste 0 -- -- 49
2020-10-07 19:00:00 24.6 6 Sudeste 16 Sudeste 0 -- -- 38
2020-10-07 18:00:00 26.6 10 Sudeste 20 Este 0 -- -- 33
2020-10-07 17:00:00 28.2 10 Sudeste 27 Nordeste 0 -- -- 32
2020-10-07 16:00:00 29.9 7 Noroeste 21 Nordeste 0 -- -- 30
2020-10-07 15:00:00 29.6 5 Oeste 19 Norte 0 -- -- 29
2020-10-07 14:00:00 28.9 9 Noroeste 19 Norte 0 -- -- 30
2020-10-07 13:00:00 27.6 7 Noroeste 18 Noroeste 0 -- -- 33
2020-10-07 12:00:00 26 8 Norte 20 Norte 0 -- -- 34
2020-10-07 11:00:00 24.4 12 Noroeste 30 Norte 0 -- -- 39
2020-10-07 10:00:00 22.5 15 Norte 33 Norte 0 -- -- 44
2020-10-07 09:00:00 19.9 13 Noroeste 29 Noroeste 0 -- -- 51
2020-10-07 08:00:00 15.9 5 Oeste 14 Sudoeste 0 -- -- 67
2020-10-07 07:00:00 17.2 5 Oeste 14 Norte 0 -- -- 64
2020-10-07 06:00:00 12.5 3 Oeste 17 Sudoeste 0 -- -- 76
2020-10-07 05:00:00 12.7 9 Sudoeste 14 Sudoeste 0 -- -- 76
2020-10-07 04:00:00 12.8 3 Sudoeste 14 Sudoeste 0 -- -- 73
2020-10-07 03:00:00 14.3 12 Sudoeste 15 Sudoeste 0 -- -- 71
2020-10-07 02:00:00 16.5 0 Calma 12 Noroeste 0 -- -- 66
2020-10-07 01:00:00 16.6 6 Noroeste 15 Norte 0 -- -- 68
2020-10-07 00:00:00 14.9 6 Sudoeste 11 Sudoeste 0 -- -- 71
2020-10-06 23:00:00 14.9 5 Oeste 13 Sudoeste 0 -- -- 71
2020-10-06 22:00:00 15.9 3 Sudoeste 14 Sudoeste 0 -- -- 67
2020-10-06 21:00:00 16.5 7 Sudoeste 12 Sudoeste 0 -- -- 65
2020-10-06 20:00:00 18.9 5 Sudoeste 10 Sur 0 -- -- 58
2020-10-06 19:00:00 21.7 3 Sudeste 11 Sudeste 0 -- -- 50
2020-10-06 18:00:00 23 5 Sudeste 18 Este 0 -- -- 44
2020-10-06 17:00:00 25.8 5 Nordeste 20 Sudoeste 0 -- -- 35
2020-10-06 16:00:00 27.5 10 Sudoeste 23 Sudoeste 0 -- -- 30
2020-10-06 15:00:00 28.4 5 Noroeste 18 Norte 0 -- -- 28
2020-10-06 14:00:00 26.8 8 Nordeste 18 Norte 0 -- -- 35
2020-10-06 13:00:00 25.7 6 Este 17 Este 0 -- -- 36
2020-10-06 12:00:00 23.8 9 Nordeste 31 Norte 0 -- -- 38
2020-10-06 11:00:00 22.5 17 Norte 29 Norte 0 -- -- 41
2020-10-06 10:00:00 16.2 4 Noroeste 8 Noroeste 0 -- -- 59
2020-10-06 09:00:00 10.4 0 Calma 10 Sudoeste 0 -- -- 72
2020-10-06 08:00:00 7.9 0 Calma 8 Sudoeste 0 -- -- 78
2020-10-06 07:00:00 7.6 0 Calma 16 Sudoeste 0 -- -- 79
2020-10-06 06:00:00 7.5 9 Sudoeste 15 Sudoeste 0 -- -- 80
2020-10-06 05:00:00 6.1 5 Sudoeste 8 Oeste 0 -- -- 86
2020-10-06 04:00:00 6.8 0 Calma 8 Sudoeste 0 -- -- 83
2020-10-06 03:00:00 7.4 2 Oeste 12 Sudoeste 0 -- -- 81
2020-10-06 02:00:00 8 3 Sudoeste 13 Sudoeste 0 -- -- 81
2020-10-06 01:00:00 7.9 4 Oeste 12 Sudoeste 0 -- -- 82
2020-10-06 00:00:00 8.8 9 Sudoeste 13 Sudoeste 0 -- -- 76
2020-10-05 23:00:00 9.5 6 Sudoeste 13 Sudoeste 0 -- -- 71
2020-10-05 22:00:00 10.3 10 Sudoeste 14 Sudoeste 0 -- -- 67
2020-10-05 21:00:00 11.1 10 Sudoeste 13 Sudoeste 0 -- -- 65
2020-10-05 20:00:00 13.2 4 Sudoeste 9 Sudoeste 0 -- -- 58
2020-10-05 19:00:00 17.9 3 Sudeste 18 Este 0 -- -- 42
2020-10-05 18:00:00 19.3 7 Sudeste 23 Este 0 -- -- 37
2020-10-05 17:00:00 20.5 9 Sudeste 21 Sudeste 0 -- -- 36
2020-10-05 16:00:00 21.3 7 Nordeste 17 Norte 0 -- -- 32
2020-10-05 15:00:00 22.4 11 Noroeste 28 Nordeste 0 -- -- 27
2020-10-05 14:00:00 21.6 12 Norte 31 Noroeste 0 -- -- 29
2020-10-05 13:00:00 20.6 13 Norte 31 Noroeste 0 -- -- 32
2020-10-05 12:00:00 19.1 17 Norte 34 Norte 0 -- -- 36
2020-10-05 11:00:00 17.4 20 Norte 31 Norte 0 -- -- 42
2020-10-05 10:00:00 16 17 Norte 28 Norte 0 -- -- 47
2020-10-05 09:00:00 11.6 10 Noroeste 17 Noroeste 0 -- -- 64
2020-10-05 08:00:00 7.9 0 Calma 10 Sudoeste 0 -- -- 79
2020-10-05 07:00:00 7.9 2 Sudoeste 12 Sudoeste 0 -- -- 80
2020-10-05 06:00:00 8 0 Calma 8 Sudoeste 0 -- -- 79
2020-10-05 05:00:00 8.4 4 Sudeste 9 Sudeste 0 -- -- 78
2020-10-05 04:00:00 7.9 6 Sudoeste 10 Sudoeste 0 -- -- 79
2020-10-05 03:00:00 9.1 0 Calma 9 Sudeste 0 -- -- 74
2020-10-05 02:00:00 11.2 4 Noroeste 14 Oeste 0 -- -- 63
2020-10-05 01:00:00 12.3 6 Oeste 13 Oeste 0 -- -- 59
2020-10-05 00:00:00 12.9 9 Sudoeste 17 Norte 0 -- -- 56
2020-10-04 23:00:00 14.7 5 Noroeste 21 Noroeste 0 -- -- 49
2020-10-04 22:00:00 14.5 7 Oeste 17 Oeste 0 -- -- 51
2020-10-04 21:00:00 16.5 5 Oeste 26 Oeste 0 -- -- 42
2020-10-04 20:00:00 17.2 6 Oeste 21 Oeste 0 -- -- 41
2020-10-04 19:00:00 18.9 7 Noroeste 24 Oeste 0 -- -- 39
2020-10-04 18:00:00 20.1 13 Noroeste 38 Noroeste 0 -- -- 34
2020-10-04 17:00:00 21.7 13 Noroeste 34 Noroeste 0 -- -- 37
2020-10-04 16:00:00 21.8 17 Noroeste 46 Noroeste 0 -- -- 37
2020-10-04 15:00:00 20.8 18 Noroeste 45 Noroeste 0 -- -- 37
2020-10-04 14:00:00 21.9 20 Noroeste 46 Noroeste 0 -- -- 35
2020-10-04 13:00:00 20.8 9 Oeste 40 Noroeste 0 -- -- 37
2020-10-04 12:00:00 19.9 10 Noroeste 35 Noroeste 0 -- -- 36
2020-10-04 11:00:00 18 9 Noroeste 18 Oeste 0 -- -- 41
2020-10-04 10:00:00 15.5 4 Nordeste 18 Noroeste 0 -- -- 47
2020-10-04 09:00:00 12.8 5 Oeste 17 Sudoeste 0 -- -- 55
2020-10-04 08:00:00 11.4 10 Oeste 24 Oeste 0 -- -- 56
2020-10-04 07:00:00 10.3 7 Oeste 15 Oeste 0 -- -- 57
2020-10-04 06:00:00 9.7 9 Sudoeste 14 Sudoeste 0 -- -- 59
2020-10-04 05:00:00 11.1 7 Oeste 17 Noroeste 0 -- -- 55
2020-10-04 04:00:00 11.5 6 Oeste 16 Oeste 0 -- -- 52
2020-10-04 03:00:00 7.8 0 Calma 7 Noroeste 0 -- -- 70
2020-10-04 02:00:00 8.7 0 Calma 15 Sudoeste 0 -- -- 69
2020-10-04 01:00:00 10.3 13 Sudoeste 17 Sudoeste 0 -- -- 59
2020-10-04 00:00:00 10.9 7 Oeste 17 Sudoeste 0 -- -- 62
2020-10-03 23:00:00 13.3 12 Sudoeste 17 Sudoeste 0 -- -- 49
2020-10-03 22:00:00 15 9 Oeste 25 Oeste 0 -- -- 44
2020-10-03 21:00:00 14.9 6 Noroeste 23 Noroeste 0 -- -- 44
2020-10-03 20:00:00 16.3 5 Oeste 19 Oeste 0 -- -- 42
2020-10-03 19:00:00 18.4 9 Noroeste 28 Oeste 0 -- -- 36
2020-10-03 18:00:00 20.6 10 Noroeste 25 Noroeste 0 -- -- 32
2020-10-03 17:00:00 21.8 6 Noroeste 25 Norte 0 -- -- 29
2020-10-03 16:00:00 21.7 6 Nordeste 17 Nordeste 0 -- -- 28
2020-10-03 15:00:00 20.8 9 Norte 20 Norte 0 -- -- 32
2020-10-03 14:00:00 20.4 9 Norte 25 Noroeste 0 -- -- 32
2020-10-03 13:00:00 19.1 11 Norte 28 Noroeste 0 -- -- 34
2020-10-03 12:00:00 17.5 13 Norte 31 Norte 0 -- -- 36
2020-10-03 11:00:00 16.2 16 Norte 29 Norte 0 -- -- 40
2020-10-03 10:00:00 14 9 Norte 17 Norte 0 -- -- 46
2020-10-03 09:00:00 10.8 4 Noroeste 16 Oeste 0 -- -- 58
2020-10-03 08:00:00 8.4 3 Noroeste 8 Oeste 0 -- -- 68
2020-10-03 07:00:00 7.2 6 Sudoeste 14 Sudoeste 0 -- -- 75
2020-10-03 06:00:00 6.4 10 Sudoeste 13 Sudoeste 0 -- -- 77
2020-10-03 05:00:00 9.2 2 Noroeste 27 Oeste 0 -- -- 62
2020-10-03 04:00:00 10.7 6 Oeste 32 Noroeste 0 -- -- 51
2020-10-03 03:00:00 10.3 6 Oeste 28 Noroeste 0 -- -- 56
2020-10-03 02:00:00 11.4 9 Noroeste 39 Noroeste 0 -- -- 50
2020-10-03 01:00:00 11.2 11 Noroeste 24 Oeste 0 -- -- 51
2020-10-03 00:00:00 11.1 7 Oeste 27 Oeste 0 -- -- 51
2020-10-02 23:00:00 11.1 8 Oeste 22 Oeste 0 -- -- 54
2020-10-02 22:00:00 10.9 11 Oeste 19 Oeste 0 -- -- 59
2020-10-02 21:00:00 10.7 9 Oeste 17 Oeste 0 -- -- 66
2020-10-02 20:00:00 11.4 4 Oeste 20 Oeste 0 -- -- 69
2020-10-02 19:00:00 12.4 9 Oeste 22 Oeste 0 -- -- 63
2020-10-02 18:00:00 13.2 7 Noroeste 35 Noroeste 0 -- -- 57
2020-10-02 17:00:00 11.9 18 Noroeste 72 Norte 0 -- -- 61
2020-10-02 16:00:00 11.7 30 Norte 58 Norte 0.4 -- -- 70
2020-10-02 15:00:00 13.7 11 Noroeste 46 Norte 7.4 -- -- 85
2020-10-02 14:00:00 17.9 8 Oeste 39 Sudoeste 0.8 -- -- 79
2020-10-02 13:00:00 18.5 6 Oeste 33 Oeste 0 -- -- 63
2020-10-02 12:00:00 17.5 7 Noroeste 37 Noroeste 0 -- -- 64
2020-10-02 11:00:00 17.2 11 Oeste 35 Noroeste 0 -- -- 61
2020-10-02 10:00:00 16.7 12 Noroeste 55 Oeste 0 -- -- 60
2020-10-02 09:00:00 16.9 17 Noroeste 53 Noroeste 0 -- -- 58
2020-10-02 08:00:00 17.6 27 Noroeste 58 Noroeste 0 -- -- 56
2020-10-02 07:00:00 17.7 13 Noroeste 33 Noroeste 0 -- -- 55
2020-10-02 06:00:00 18.3 12 Noroeste 43 Noroeste 0 -- -- 53
2020-10-02 05:00:00 18.9 13 Noroeste 31 Noroeste 0 -- -- 52
2020-10-02 04:00:00 19.2 5 Noroeste 37 Noroeste 0 -- -- 49
2020-10-02 03:00:00 17.1 7 Noroeste 19 Norte 0 -- -- 57
2020-10-02 02:00:00 15.8 3 Oeste 10 Oeste 0 -- -- 61
2020-10-02 01:00:00 16.1 4 Oeste 12 Noroeste 0 -- -- 58
2020-10-02 00:00:00 16.7 7 Oeste 14 Sudoeste 0 -- -- 52
2020-10-01 23:00:00 17.2 9 Sudoeste 14 Sudoeste 0 -- -- 50
2020-10-01 22:00:00 19 5 Oeste 16 Noroeste 0 -- -- 45
2020-10-01 21:00:00 23 9 Noroeste 26 Noroeste 0 -- -- 35
2020-10-01 20:00:00 23.8 8 Sudeste 22 Noroeste 0 -- -- 42
2020-10-01 19:00:00 26.8 6 Noroeste 21 Oeste 0 -- -- 27
2020-10-01 18:00:00 28 3 Noroeste 23 Sur 0 -- -- 22
2020-10-01 17:00:00 30.6 7 Noroeste 31 Norte 0 -- -- 19
2020-10-01 16:00:00 29.7 12 Norte 33 Nordeste 0 -- -- 25
2020-10-01 15:00:00 29.8 11 Nordeste 27 Nordeste 0 -- -- 28
2020-10-01 14:00:00 29.3 9 Nordeste 22 Nordeste 0 -- -- 24
2020-10-01 13:00:00 27.8 10 Este 19 Sudeste 0 -- -- 28
2020-10-01 12:00:00 27.1 7 Sudoeste 18 Sudoeste 0 -- -- 29
2020-10-01 11:00:00 24.5 3 Nordeste 7 Norte 0 -- -- 37
2020-10-01 10:00:00 18.7 5 Oeste 15 Sudoeste 0 -- -- 60
2020-10-01 09:00:00 11.9 6 Sudoeste 9 Sudoeste 0 -- -- 85
2020-10-01 08:00:00 10.3 4 Oeste 13 Sudoeste 0 -- -- 90
2020-10-01 07:00:00 9.9 2 Sudoeste 15 Sudoeste 0 -- -- 93
2020-10-01 06:00:00 10.4 3 Sudoeste 10 Oeste 0 -- -- 95
2020-10-01 05:00:00 11.2 6 Sudoeste 14 Sudoeste 0 -- -- 93
2020-10-01 04:00:00 12 6 Sudoeste 12 Oeste 0 -- -- 94
2020-10-01 03:00:00 12.7 6 Sudoeste 13 Sudoeste 0 -- -- 94
2020-10-01 02:00:00 13.3 8 Sudoeste 15 Sudoeste 0 -- -- 94
2020-10-01 01:00:00 13.5 8 Sudoeste 13 Sudoeste 0 -- -- 94
2020-10-01 00:00:00 13.8 8 Sudoeste 12 Sudoeste 0 -- -- 93
2020-09-30 23:00:00 14.2 9 Sudoeste 12 Sudoeste 0 -- -- 91
2020-09-30 22:00:00 14.8 7 Sudoeste 9 Sudoeste 0 -- -- 89
2020-09-30 21:00:00 15.9 4 Oeste 8 Sudoeste 0 -- -- 84
2020-09-30 20:00:00 18.4 3 Sudeste 14 Este 0 -- -- 81
2020-09-30 19:00:00 19.6 4 Sur 18 Sudeste 0 -- -- 77
2020-09-30 18:00:00 20.8 9 Sudeste 23 Sudeste 0 -- -- 72
2020-09-30 17:00:00 21.8 11 Sudeste 25 Sudeste 0 -- -- 67
2020-09-30 16:00:00 23.4 12 Sudeste 25 Sudeste 0 -- -- 59
2020-09-30 15:00:00 24 12 Sudeste 24 Sudeste 0 -- -- 56
2020-09-30 14:00:00 24.3 9 Sudeste 18 Sudeste 0 -- -- 55
2020-09-30 13:00:00 23.5 9 Este 22 Sudeste 0 -- -- 58
2020-09-30 12:00:00 22.7 4 Este 14 Sudeste 0 -- -- 54
2020-09-30 11:00:00 20.3 5 Nordeste 9 Nordeste 0 -- -- 59
2020-09-30 10:00:00 17.1 0 Calma 8 Sudoeste 0 -- -- 77
2020-09-30 09:00:00 12.1 0 Calma 11 Sudoeste 0 -- -- 96
2020-09-30 08:00:00 10 3 Sudoeste 9 Sudoeste 0 -- -- 95
2020-09-30 07:00:00 10.3 5 Sudoeste 9 Sudoeste 0 -- -- 94
2020-09-30 06:00:00 10.8 4 Sudoeste 8 Sudoeste 0 -- -- 93
2020-09-30 05:00:00 10.8 4 Oeste 12 Sudoeste 0 -- -- 92
2020-09-30 04:00:00 11.1 2 Oeste 10 Sudoeste 0 -- -- 92
2020-09-30 03:00:00 10.9 5 Oeste 9 Sudoeste 0 -- -- 92
2020-09-30 02:00:00 11.9 9 Sudoeste 13 Sudoeste 0 -- -- 91
2020-09-30 01:00:00 12.3 6 Sudoeste 10 Sudoeste 0 -- -- 91
2020-09-30 00:00:00 12.6 4 Sudoeste 12 Sudoeste 0 -- -- 89